sensor_id;sensor_type;location;lat;lon;timestamp;P1;durP1;ratioP1;P2;durP2;ratioP2
25627;SDS011;40915;50.826;4.356;2022-07-06T00:01:06;4.53;;;1.90;;
25627;SDS011;40915;50.826;4.356;2022-07-06T00:03:32;7.05;;;1.98;;
25627;SDS011;40915;50.826;4.356;2022-07-06T00:05:57;6.03;;;2.20;;
25627;SDS011;40915;50.826;4.356;2022-07-06T00:08:23;6.00;;;2.05;;
25627;SDS011;40915;50.826;4.356;2022-07-06T00:10:49;6.60;;;2.80;;
25627;SDS011;40915;50.826;4.356;2022-07-06T00:13:14;5.10;;;2.28;;
25627;SDS011;40915;50.826;4.356;2022-07-06T00:15:40;7.18;;;2.20;;
25627;SDS011;40915;50.826;4.356;2022-07-06T00:18:06;5.00;;;2.10;;
25627;SDS011;40915;50.826;4.356;2022-07-06T00:20:32;6.78;;;2.20;;
25627;SDS011;40915;50.826;4.356;2022-07-06T00:22:58;4.18;;;1.80;;
25627;SDS011;40915;50.826;4.356;2022-07-06T00:25:23;6.53;;;2.53;;
25627;SDS011;40915;50.826;4.356;2022-07-06T00:27:49;7.10;;;2.53;;
25627;SDS011;40915;50.826;4.356;2022-07-06T00:30:14;2.75;;;2.15;;
25627;SDS011;40915;50.826;4.356;2022-07-06T00:32:40;5.05;;;1.98;;
25627;SDS011;40915;50.826;4.356;2022-07-06T00:35:06;8.48;;;2.40;;
25627;SDS011;40915;50.826;4.356;2022-07-06T00:37:32;5.68;;;2.42;;
25627;SDS011;40915;50.826;4.356;2022-07-06T00:39:57;7.85;;;2.40;;
25627;SDS011;40915;50.826;4.356;2022-07-06T00:42:23;5.05;;;2.20;;
25627;SDS011;40915;50.826;4.356;2022-07-06T00:44:49;4.25;;;2.20;;
25627;SDS011;40915;50.826;4.356;2022-07-06T00:47:15;5.65;;;2.40;;
25627;SDS011;40915;50.826;4.356;2022-07-06T00:49:41;7.15;;;2.30;;
25627;SDS011;40915;50.826;4.356;2022-07-06T00:52:25;2.95;;;2.13;;
25627;SDS011;40915;50.826;4.356;2022-07-06T00:54:50;6.68;;;2.70;;
25627;SDS011;40915;50.826;4.356;2022-07-06T00:57:17;5.85;;;2.50;;
25627;SDS011;40915;50.826;4.356;2022-07-06T00:59:43;4.03;;;2.55;;
25627;SDS011;40915;50.826;4.356;2022-07-06T01:02:09;6.32;;;2.30;;
25627;SDS011;40915;50.826;4.356;2022-07-06T01:04:34;3.35;;;2.20;;
25627;SDS011;40915;50.826;4.356;2022-07-06T01:07:00;5.63;;;2.40;;
25627;SDS011;40915;50.826;4.356;2022-07-06T01:09:26;5.18;;;2.20;;
25627;SDS011;40915;50.826;4.356;2022-07-06T01:11:52;4.72;;;2.50;;
25627;SDS011;40915;50.826;4.356;2022-07-06T01:14:19;5.97;;;2.53;;
25627;SDS011;40915;50.826;4.356;2022-07-06T01:16:45;5.90;;;2.72;;
25627;SDS011;40915;50.826;4.356;2022-07-06T01:19:11;4.70;;;2.65;;
25627;SDS011;40915;50.826;4.356;2022-07-06T01:21:37;4.93;;;2.65;;
25627;SDS011;40915;50.826;4.356;2022-07-06T01:24:03;7.55;;;2.78;;
25627;SDS011;40915;50.826;4.356;2022-07-06T01:26:29;7.82;;;3.15;;
25627;SDS011;40915;50.826;4.356;2022-07-06T01:28:55;7.22;;;2.40;;
25627;SDS011;40915;50.826;4.356;2022-07-06T01:31:22;4.45;;;2.53;;
25627;SDS011;40915;50.826;4.356;2022-07-06T01:33:49;8.40;;;2.78;;
25627;SDS011;40915;50.826;4.356;2022-07-06T01:36:20;5.63;;;2.80;;
25627;SDS011;40915;50.826;4.356;2022-07-06T01:41:12;7.03;;;2.78;;
25627;SDS011;40915;50.826;4.356;2022-07-06T01:43:38;6.18;;;2.63;;
25627;SDS011;40915;50.826;4.356;2022-07-06T01:46:04;7.55;;;2.88;;
25627;SDS011;40915;50.826;4.356;2022-07-06T01:48:29;5.55;;;3.13;;
25627;SDS011;40915;50.826;4.356;2022-07-06T01:50:55;5.95;;;2.90;;
25627;SDS011;40915;50.826;4.356;2022-07-06T01:53:21;5.78;;;2.83;;
25627;SDS011;40915;50.826;4.356;2022-07-06T01:55:46;5.40;;;2.97;;
25627;SDS011;40915;50.826;4.356;2022-07-06T01:58:12;5.63;;;2.72;;
25627;SDS011;40915;50.826;4.356;2022-07-06T02:00:38;4.40;;;2.78;;
25627;SDS011;40915;50.826;4.356;2022-07-06T02:03:03;6.90;;;3.10;;
25627;SDS011;40915;50.826;4.356;2022-07-06T02:05:29;5.63;;;2.90;;
25627;SDS011;40915;50.826;4.356;2022-07-06T02:07:54;8.88;;;2.97;;
25627;SDS011;40915;50.826;4.356;2022-07-06T02:10:20;8.07;;;3.10;;
25627;SDS011;40915;50.826;4.356;2022-07-06T02:12:46;5.75;;;2.90;;
25627;SDS011;40915;50.826;4.356;2022-07-06T02:15:12;5.38;;;3.35;;
25627;SDS011;40915;50.826;4.356;2022-07-06T02:17:38;11.10;;;3.25;;
25627;SDS011;40915;50.826;4.356;2022-07-06T02:20:04;7.57;;;2.88;;
25627;SDS011;40915;50.826;4.356;2022-07-06T02:22:30;5.30;;;2.80;;
25627;SDS011;40915;50.826;4.356;2022-07-06T02:24:56;6.20;;;3.05;;
25627;SDS011;40915;50.826;4.356;2022-07-06T02:27:22;8.85;;;2.90;;
25627;SDS011;40915;50.826;4.356;2022-07-06T02:29:47;4.82;;;2.80;;
25627;SDS011;40915;50.826;4.356;2022-07-06T02:32:13;13.48;;;3.78;;
25627;SDS011;40915;50.826;4.356;2022-07-06T02:34:38;7.70;;;3.60;;
25627;SDS011;40915;50.826;4.356;2022-07-06T02:37:04;7.38;;;3.20;;
25627;SDS011;40915;50.826;4.356;2022-07-06T02:39:30;8.57;;;3.15;;
25627;SDS011;40915;50.826;4.356;2022-07-06T02:41:55;6.95;;;3.13;;
25627;SDS011;40915;50.826;4.356;2022-07-06T02:44:21;6.45;;;2.92;;
25627;SDS011;40915;50.826;4.356;2022-07-06T02:46:47;7.32;;;3.20;;
25627;SDS011;40915;50.826;4.356;2022-07-06T02:49:12;6.22;;;3.38;;
25627;SDS011;40915;50.826;4.356;2022-07-06T02:51:38;5.90;;;3.03;;
25627;SDS011;40915;50.826;4.356;2022-07-06T02:54:03;6.68;;;3.03;;
25627;SDS011;40915;50.826;4.356;2022-07-06T02:56:29;6.63;;;3.33;;
25627;SDS011;40915;50.826;4.356;2022-07-06T02:58:55;5.25;;;3.00;;
25627;SDS011;40915;50.826;4.356;2022-07-06T03:01:20;8.07;;;3.25;;
25627;SDS011;40915;50.826;4.356;2022-07-06T03:03:46;7.05;;;3.50;;
25627;SDS011;40915;50.826;4.356;2022-07-06T03:06:12;5.85;;;3.60;;
25627;SDS011;40915;50.826;4.356;2022-07-06T03:08:37;4.50;;;3.10;;
25627;SDS011;40915;50.826;4.356;2022-07-06T03:11:03;6.65;;;3.47;;
25627;SDS011;40915;50.826;4.356;2022-07-06T03:13:29;5.60;;;3.53;;
25627;SDS011;40915;50.826;4.356;2022-07-06T03:15:54;7.93;;;3.50;;
25627;SDS011;40915;50.826;4.356;2022-07-06T03:18:20;7.60;;;3.75;;
25627;SDS011;40915;50.826;4.356;2022-07-06T03:20:46;7.18;;;3.50;;
25627;SDS011;40915;50.826;4.356;2022-07-06T03:23:11;7.30;;;3.60;;
25627;SDS011;40915;50.826;4.356;2022-07-06T03:25:37;4.80;;;3.47;;
25627;SDS011;40915;50.826;4.356;2022-07-06T03:28:03;6.18;;;3.50;;
25627;SDS011;40915;50.826;4.356;2022-07-06T03:30:29;7.20;;;3.80;;
25627;SDS011;40915;50.826;4.356;2022-07-06T03:32:54;6.72;;;3.80;;
25627;SDS011;40915;50.826;4.356;2022-07-06T03:35:20;8.30;;;4.57;;
25627;SDS011;40915;50.826;4.356;2022-07-06T03:37:46;7.32;;;4.22;;
25627;SDS011;40915;50.826;4.356;2022-07-06T03:40:11;6.20;;;3.80;;
25627;SDS011;40915;50.826;4.356;2022-07-06T03:42:37;9.88;;;4.65;;
25627;SDS011;40915;50.826;4.356;2022-07-06T03:45:04;5.88;;;3.88;;
25627;SDS011;40915;50.826;4.356;2022-07-06T03:47:30;9.30;;;3.75;;
25627;SDS011;40915;50.826;4.356;2022-07-06T03:49:56;7.30;;;3.90;;
25627;SDS011;40915;50.826;4.356;2022-07-06T03:52:21;8.43;;;4.38;;
25627;SDS011;40915;50.826;4.356;2022-07-06T03:54:47;8.80;;;4.25;;
25627;SDS011;40915;50.826;4.356;2022-07-06T03:57:13;11.45;;;4.50;;
25627;SDS011;40915;50.826;4.356;2022-07-06T03:59:39;6.25;;;3.88;;
25627;SDS011;40915;50.826;4.356;2022-07-06T04:02:05;8.80;;;4.00;;
25627;SDS011;40915;50.826;4.356;2022-07-06T04:04:31;8.90;;;4.18;;
25627;SDS011;40915;50.826;4.356;2022-07-06T04:06:58;6.78;;;3.40;;
25627;SDS011;40915;50.826;4.356;2022-07-06T04:09:24;5.38;;;3.80;;
25627;SDS011;40915;50.826;4.356;2022-07-06T04:11:49;6.38;;;3.60;;
25627;SDS011;40915;50.826;4.356;2022-07-06T04:14:15;6.43;;;3.85;;
25627;SDS011;40915;50.826;4.356;2022-07-06T04:16:40;6.45;;;3.88;;
25627;SDS011;40915;50.826;4.356;2022-07-06T04:19:06;5.70;;;3.55;;
25627;SDS011;40915;50.826;4.356;2022-07-06T04:21:32;13.38;;;4.72;;
25627;SDS011;40915;50.826;4.356;2022-07-06T04:23:57;8.25;;;3.80;;
25627;SDS011;40915;50.826;4.356;2022-07-06T04:26:23;9.48;;;4.75;;
25627;SDS011;40915;50.826;4.356;2022-07-06T04:28:49;7.75;;;3.90;;
25627;SDS011;40915;50.826;4.356;2022-07-06T04:31:14;6.13;;;3.38;;
25627;SDS011;40915;50.826;4.356;2022-07-06T04:33:41;8.15;;;3.80;;
25627;SDS011;40915;50.826;4.356;2022-07-06T04:36:08;8.75;;;4.00;;
25627;SDS011;40915;50.826;4.356;2022-07-06T04:38:34;8.90;;;4.38;;
25627;SDS011;40915;50.826;4.356;2022-07-06T04:41:00;10.02;;;4.45;;
25627;SDS011;40915;50.826;4.356;2022-07-06T04:43:25;9.20;;;4.10;;
25627;SDS011;40915;50.826;4.356;2022-07-06T04:45:51;10.82;;;3.97;;
25627;SDS011;40915;50.826;4.356;2022-07-06T04:48:17;13.10;;;4.45;;
25627;SDS011;40915;50.826;4.356;2022-07-06T04:50:42;7.43;;;4.03;;
25627;SDS011;40915;50.826;4.356;2022-07-06T04:53:08;10.15;;;3.78;;
25627;SDS011;40915;50.826;4.356;2022-07-06T04:55:34;9.73;;;4.05;;
25627;SDS011;40915;50.826;4.356;2022-07-06T04:58:00;9.85;;;4.47;;
25627;SDS011;40915;50.826;4.356;2022-07-06T05:00:25;7.10;;;3.90;;
25627;SDS011;40915;50.826;4.356;2022-07-06T05:02:51;6.85;;;4.00;;
25627;SDS011;40915;50.826;4.356;2022-07-06T05:05:17;8.35;;;4.00;;
25627;SDS011;40915;50.826;4.356;2022-07-06T05:07:43;7.35;;;4.30;;
25627;SDS011;40915;50.826;4.356;2022-07-06T05:10:08;7.28;;;4.03;;
25627;SDS011;40915;50.826;4.356;2022-07-06T05:12:35;6.25;;;4.13;;
25627;SDS011;40915;50.826;4.356;2022-07-06T05:15:01;6.72;;;4.18;;
25627;SDS011;40915;50.826;4.356;2022-07-06T05:17:27;9.05;;;4.60;;
25627;SDS011;40915;50.826;4.356;2022-07-06T05:19:53;11.35;;;5.68;;
25627;SDS011;40915;50.826;4.356;2022-07-06T05:22:19;8.02;;;5.00;;
25627;SDS011;40915;50.826;4.356;2022-07-06T05:24:45;6.50;;;4.20;;
25627;SDS011;40915;50.826;4.356;2022-07-06T05:27:10;9.52;;;4.72;;
25627;SDS011;40915;50.826;4.356;2022-07-06T05:29:36;9.90;;;4.75;;
25627;SDS011;40915;50.826;4.356;2022-07-06T05:32:01;9.73;;;4.65;;
25627;SDS011;40915;50.826;4.356;2022-07-06T05:34:27;6.75;;;4.13;;
25627;SDS011;40915;50.826;4.356;2022-07-06T05:36:53;5.28;;;3.60;;
25627;SDS011;40915;50.826;4.356;2022-07-06T05:39:19;6.82;;;4.25;;
25627;SDS011;40915;50.826;4.356;2022-07-06T05:41:46;11.32;;;5.00;;
25627;SDS011;40915;50.826;4.356;2022-07-06T05:44:12;8.25;;;5.00;;
25627;SDS011;40915;50.826;4.356;2022-07-06T05:46:38;10.73;;;4.93;;
25627;SDS011;40915;50.826;4.356;2022-07-06T05:49:04;13.68;;;5.47;;
25627;SDS011;40915;50.826;4.356;2022-07-06T05:51:48;9.82;;;4.75;;
25627;SDS011;40915;50.826;4.356;2022-07-06T05:54:14;8.57;;;4.82;;
25627;SDS011;40915;50.826;4.356;2022-07-06T05:56:40;13.30;;;4.82;;
25627;SDS011;40915;50.826;4.356;2022-07-06T05:59:05;9.35;;;4.60;;
25627;SDS011;40915;50.826;4.356;2022-07-06T06:01:31;7.50;;;4.22;;
25627;SDS011;40915;50.826;4.356;2022-07-06T06:03:57;8.65;;;4.78;;
25627;SDS011;40915;50.826;4.356;2022-07-06T06:06:24;11.20;;;4.28;;
25627;SDS011;40915;50.826;4.356;2022-07-06T06:08:50;9.98;;;4.55;;
25627;SDS011;40915;50.826;4.356;2022-07-06T06:11:16;11.10;;;4.32;;
25627;SDS011;40915;50.826;4.356;2022-07-06T06:13:41;7.60;;;4.28;;
25627;SDS011;40915;50.826;4.356;2022-07-06T06:16:07;7.03;;;3.47;;
25627;SDS011;40915;50.826;4.356;2022-07-06T06:18:33;7.55;;;3.30;;
25627;SDS011;40915;50.826;4.356;2022-07-06T06:20:58;9.15;;;3.78;;
25627;SDS011;40915;50.826;4.356;2022-07-06T06:23:24;5.45;;;2.65;;
25627;SDS011;40915;50.826;4.356;2022-07-06T06:25:50;5.43;;;3.05;;
25627;SDS011;40915;50.826;4.356;2022-07-06T06:28:15;13.27;;;4.10;;
25627;SDS011;40915;50.826;4.356;2022-07-06T06:30:44;8.65;;;3.80;;
25627;SDS011;40915;50.826;4.356;2022-07-06T06:33:15;10.43;;;3.75;;
25627;SDS011;40915;50.826;4.356;2022-07-06T06:35:42;9.98;;;4.18;;
25627;SDS011;40915;50.826;4.356;2022-07-06T06:38:15;11.63;;;3.85;;
25627;SDS011;40915;50.826;4.356;2022-07-06T06:40:42;9.25;;;2.83;;
25627;SDS011;40915;50.826;4.356;2022-07-06T06:43:08;8.93;;;4.07;;
25627;SDS011;40915;50.826;4.356;2022-07-06T06:45:34;9.50;;;3.55;;
25627;SDS011;40915;50.826;4.356;2022-07-06T06:48:00;11.82;;;4.20;;
25627;SDS011;40915;50.826;4.356;2022-07-06T06:50:26;9.35;;;3.72;;
25627;SDS011;40915;50.826;4.356;2022-07-06T06:52:52;9.50;;;4.05;;
25627;SDS011;40915;50.826;4.356;2022-07-06T06:55:17;7.95;;;2.83;;
25627;SDS011;40915;50.826;4.356;2022-07-06T06:57:43;9.13;;;3.30;;
25627;SDS011;40915;50.826;4.356;2022-07-06T07:00:12;8.43;;;3.92;;
25627;SDS011;40915;50.826;4.356;2022-07-06T07:02:39;8.85;;;2.80;;
25627;SDS011;40915;50.826;4.356;2022-07-06T07:05:04;10.32;;;3.58;;
25627;SDS011;40915;50.826;4.356;2022-07-06T07:07:31;8.07;;;3.30;;
25627;SDS011;40915;50.826;4.356;2022-07-06T07:09:58;10.02;;;3.53;;
25627;SDS011;40915;50.826;4.356;2022-07-06T07:12:23;9.30;;;3.50;;
25627;SDS011;40915;50.826;4.356;2022-07-06T07:14:49;25.13;;;5.80;;
25627;SDS011;40915;50.826;4.356;2022-07-06T07:17:15;6.95;;;3.05;;
25627;SDS011;40915;50.826;4.356;2022-07-06T07:19:40;8.30;;;2.70;;
25627;SDS011;40915;50.826;4.356;2022-07-06T07:22:07;9.20;;;3.40;;
25627;SDS011;40915;50.826;4.356;2022-07-06T07:24:32;10.50;;;3.03;;
25627;SDS011;40915;50.826;4.356;2022-07-06T07:26:58;4.78;;;1.88;;
25627;SDS011;40915;50.826;4.356;2022-07-06T07:29:24;8.38;;;2.10;;
25627;SDS011;40915;50.826;4.356;2022-07-06T07:31:49;6.25;;;2.08;;
25627;SDS011;40915;50.826;4.356;2022-07-06T07:34:15;12.00;;;2.88;;
25627;SDS011;40915;50.826;4.356;2022-07-06T07:36:42;10.88;;;2.97;;
25627;SDS011;40915;50.826;4.356;2022-07-06T07:39:07;13.32;;;4.65;;
25627;SDS011;40915;50.826;4.356;2022-07-06T07:41:33;8.75;;;2.90;;
25627;SDS011;40915;50.826;4.356;2022-07-06T07:43:59;9.70;;;2.75;;
25627;SDS011;40915;50.826;4.356;2022-07-06T07:46:24;8.18;;;2.60;;
25627;SDS011;40915;50.826;4.356;2022-07-06T07:48:50;6.30;;;2.97;;
25627;SDS011;40915;50.826;4.356;2022-07-06T07:51:16;7.85;;;3.20;;
25627;SDS011;40915;50.826;4.356;2022-07-06T07:53:41;7.20;;;2.97;;
25627;SDS011;40915;50.826;4.356;2022-07-06T07:56:07;5.88;;;2.20;;
25627;SDS011;40915;50.826;4.356;2022-07-06T07:58:33;7.55;;;2.30;;
25627;SDS011;40915;50.826;4.356;2022-07-06T08:00:59;6.80;;;2.30;;
25627;SDS011;40915;50.826;4.356;2022-07-06T08:03:25;5.93;;;2.55;;
25627;SDS011;40915;50.826;4.356;2022-07-06T08:05:51;5.53;;;2.35;;
25627;SDS011;40915;50.826;4.356;2022-07-06T08:08:16;5.35;;;2.13;;
25627;SDS011;40915;50.826;4.356;2022-07-06T08:10:42;5.82;;;2.15;;
25627;SDS011;40915;50.826;4.356;2022-07-06T08:13:08;7.30;;;2.00;;
25627;SDS011;40915;50.826;4.356;2022-07-06T08:15:35;6.50;;;2.40;;
25627;SDS011;40915;50.826;4.356;2022-07-06T08:18:01;5.72;;;2.33;;
25627;SDS011;40915;50.826;4.356;2022-07-06T08:20:27;5.70;;;2.30;;
25627;SDS011;40915;50.826;4.356;2022-07-06T08:22:53;5.75;;;2.40;;
25627;SDS011;40915;50.826;4.356;2022-07-06T08:25:19;7.38;;;2.30;;
25627;SDS011;40915;50.826;4.356;2022-07-06T08:27:44;12.02;;;2.97;;
25627;SDS011;40915;50.826;4.356;2022-07-06T08:30:10;6.82;;;2.75;;
25627;SDS011;40915;50.826;4.356;2022-07-06T08:32:37;4.30;;;2.15;;
25627;SDS011;40915;50.826;4.356;2022-07-06T08:35:07;4.75;;;2.10;;
25627;SDS011;40915;50.826;4.356;2022-07-06T08:37:35;6.50;;;2.15;;
25627;SDS011;40915;50.826;4.356;2022-07-06T08:40:04;7.18;;;2.75;;
25627;SDS011;40915;50.826;4.356;2022-07-06T08:42:33;6.50;;;2.55;;
25627;SDS011;40915;50.826;4.356;2022-07-06T08:45:00;7.43;;;2.97;;
25627;SDS011;40915;50.826;4.356;2022-07-06T08:47:27;4.88;;;2.22;;
25627;SDS011;40915;50.826;4.356;2022-07-06T08:49:54;8.80;;;2.55;;
25627;SDS011;40915;50.826;4.356;2022-07-06T08:52:20;5.28;;;2.47;;
25627;SDS011;40915;50.826;4.356;2022-07-06T08:54:47;6.53;;;3.13;;
25627;SDS011;40915;50.826;4.356;2022-07-06T08:57:13;9.75;;;3.00;;
25627;SDS011;40915;50.826;4.356;2022-07-06T08:59:39;3.53;;;2.28;;
25627;SDS011;40915;50.826;4.356;2022-07-06T09:02:05;7.13;;;2.88;;
25627;SDS011;40915;50.826;4.356;2022-07-06T09:04:35;10.82;;;2.83;;
25627;SDS011;40915;50.826;4.356;2022-07-06T09:07:01;8.93;;;3.05;;
25627;SDS011;40915;50.826;4.356;2022-07-06T09:09:27;9.98;;;3.33;;
25627;SDS011;40915;50.826;4.356;2022-07-06T09:11:56;6.60;;;3.17;;
25627;SDS011;40915;50.826;4.356;2022-07-06T09:14:22;10.43;;;2.72;;
25627;SDS011;40915;50.826;4.356;2022-07-06T09:16:51;6.30;;;2.88;;
25627;SDS011;40915;50.826;4.356;2022-07-06T09:19:26;7.65;;;2.85;;
25627;SDS011;40915;50.826;4.356;2022-07-06T09:21:52;6.63;;;3.13;;
25627;SDS011;40915;50.826;4.356;2022-07-06T09:24:19;6.55;;;2.60;;
25627;SDS011;40915;50.826;4.356;2022-07-06T09:26:44;9.70;;;3.80;;
25627;SDS011;40915;50.826;4.356;2022-07-06T09:29:12;6.65;;;3.25;;
25627;SDS011;40915;50.826;4.356;2022-07-06T09:31:40;6.30;;;2.70;;
25627;SDS011;40915;50.826;4.356;2022-07-06T09:34:06;10.52;;;4.05;;
25627;SDS011;40915;50.826;4.356;2022-07-06T09:39:19;5.82;;;2.88;;
25627;SDS011;40915;50.826;4.356;2022-07-06T09:41:47;5.97;;;2.50;;
25627;SDS011;40915;50.826;4.356;2022-07-06T09:44:20;7.60;;;2.67;;
25627;SDS011;40915;50.826;4.356;2022-07-06T09:46:50;9.85;;;2.80;;
25627;SDS011;40915;50.826;4.356;2022-07-06T09:49:20;8.23;;;3.03;;
25627;SDS011;40915;50.826;4.356;2022-07-06T09:51:47;7.70;;;2.72;;
25627;SDS011;40915;50.826;4.356;2022-07-06T09:54:14;8.57;;;3.00;;
25627;SDS011;40915;50.826;4.356;2022-07-06T09:56:41;7.63;;;2.92;;
25627;SDS011;40915;50.826;4.356;2022-07-06T09:59:09;8.23;;;3.38;;
25627;SDS011;40915;50.826;4.356;2022-07-06T10:01:38;9.50;;;2.90;;
25627;SDS011;40915;50.826;4.356;2022-07-06T10:04:08;7.10;;;2.85;;
25627;SDS011;40915;50.826;4.356;2022-07-06T10:06:38;7.03;;;2.40;;
25627;SDS011;40915;50.826;4.356;2022-07-06T10:09:07;8.02;;;2.72;;
25627;SDS011;40915;50.826;4.356;2022-07-06T10:11:37;5.88;;;2.30;;
25627;SDS011;40915;50.826;4.356;2022-07-06T10:14:05;7.43;;;2.53;;
25627;SDS011;40915;50.826;4.356;2022-07-06T10:16:32;5.75;;;2.50;;
25627;SDS011;40915;50.826;4.356;2022-07-06T10:19:06;5.55;;;2.63;;
25627;SDS011;40915;50.826;4.356;2022-07-06T10:21:36;7.22;;;2.70;;
25627;SDS011;40915;50.826;4.356;2022-07-06T10:24:05;6.35;;;2.50;;
25627;SDS011;40915;50.826;4.356;2022-07-06T10:26:32;7.10;;;2.50;;
25627;SDS011;40915;50.826;4.356;2022-07-06T10:28:59;6.70;;;2.72;;
25627;SDS011;40915;50.826;4.356;2022-07-06T10:31:27;7.13;;;2.63;;
25627;SDS011;40915;50.826;4.356;2022-07-06T10:33:55;5.85;;;2.40;;
25627;SDS011;40915;50.826;4.356;2022-07-06T10:36:22;5.88;;;2.72;;
25627;SDS011;40915;50.826;4.356;2022-07-06T10:38:49;4.78;;;2.50;;
25627;SDS011;40915;50.826;4.356;2022-07-06T10:41:16;8.57;;;2.92;;
25627;SDS011;40915;50.826;4.356;2022-07-06T10:43:47;7.05;;;2.78;;
25627;SDS011;40915;50.826;4.356;2022-07-06T10:46:17;7.35;;;2.60;;
25627;SDS011;40915;50.826;4.356;2022-07-06T10:48:45;5.60;;;2.92;;
25627;SDS011;40915;50.826;4.356;2022-07-06T10:51:13;5.70;;;2.60;;
25627;SDS011;40915;50.826;4.356;2022-07-06T10:53:59;6.72;;;2.40;;
25627;SDS011;40915;50.826;4.356;2022-07-06T10:56:33;8.05;;;3.05;;
25627;SDS011;40915;50.826;4.356;2022-07-06T10:59:09;7.13;;;2.38;;
25627;SDS011;40915;50.826;4.356;2022-07-06T11:04:37;6.20;;;2.50;;
25627;SDS011;40915;50.826;4.356;2022-07-06T11:07:07;8.50;;;2.28;;
25627;SDS011;40915;50.826;4.356;2022-07-06T11:09:35;5.13;;;2.22;;
25627;SDS011;40915;50.826;4.356;2022-07-06T11:12:15;5.80;;;2.45;;
25627;SDS011;40915;50.826;4.356;2022-07-06T11:14:44;10.27;;;2.92;;
25627;SDS011;40915;50.826;4.356;2022-07-06T11:17:11;6.72;;;2.10;;
25627;SDS011;40915;50.826;4.356;2022-07-06T11:19:37;4.03;;;2.00;;
25627;SDS011;40915;50.826;4.356;2022-07-06T11:22:12;5.85;;;2.10;;
25627;SDS011;40915;50.826;4.356;2022-07-06T11:24:41;4.90;;;2.20;;
25627;SDS011;40915;50.826;4.356;2022-07-06T11:27:07;5.80;;;2.42;;
25627;SDS011;40915;50.826;4.356;2022-07-06T11:29:34;8.10;;;2.30;;
25627;SDS011;40915;50.826;4.356;2022-07-06T11:32:03;6.25;;;2.60;;
25627;SDS011;40915;50.826;4.356;2022-07-06T11:34:31;5.82;;;2.75;;
25627;SDS011;40915;50.826;4.356;2022-07-06T11:36:59;6.82;;;2.10;;
25627;SDS011;40915;50.826;4.356;2022-07-06T11:39:33;7.07;;;2.20;;
25627;SDS011;40915;50.826;4.356;2022-07-06T11:42:01;6.15;;;2.17;;
25627;SDS011;40915;50.826;4.356;2022-07-06T11:44:29;5.85;;;1.98;;
25627;SDS011;40915;50.826;4.356;2022-07-06T11:46:55;6.60;;;2.17;;
25627;SDS011;40915;50.826;4.356;2022-07-06T11:49:22;9.02;;;1.80;;
25627;SDS011;40915;50.826;4.356;2022-07-06T11:51:48;6.88;;;1.50;;
25627;SDS011;40915;50.826;4.356;2022-07-06T11:54:17;7.82;;;2.03;;
25627;SDS011;40915;50.826;4.356;2022-07-06T11:56:45;6.05;;;1.90;;
25627;SDS011;40915;50.826;4.356;2022-07-06T11:59:12;4.13;;;1.27;;
25627;SDS011;40915;50.826;4.356;2022-07-06T12:01:40;6.80;;;1.55;;
25627;SDS011;40915;50.826;4.356;2022-07-06T12:04:09;6.32;;;2.10;;
25627;SDS011;40915;50.826;4.356;2022-07-06T12:06:35;6.03;;;2.45;;
25627;SDS011;40915;50.826;4.356;2022-07-06T12:09:01;3.55;;;2.20;;
25627;SDS011;40915;50.826;4.356;2022-07-06T12:11:33;5.05;;;2.05;;
25627;SDS011;40915;50.826;4.356;2022-07-06T12:14:11;6.32;;;2.05;;
25627;SDS011;40915;50.826;4.356;2022-07-06T12:16:39;11.27;;;2.47;;
25627;SDS011;40915;50.826;4.356;2022-07-06T12:19:05;7.00;;;2.50;;
25627;SDS011;40915;50.826;4.356;2022-07-06T12:21:33;6.15;;;2.10;;
25627;SDS011;40915;50.826;4.356;2022-07-06T12:24:00;4.47;;;1.55;;
25627;SDS011;40915;50.826;4.356;2022-07-06T12:26:27;4.28;;;1.90;;
25627;SDS011;40915;50.826;4.356;2022-07-06T12:29:10;3.78;;;1.77;;
25627;SDS011;40915;50.826;4.356;2022-07-06T12:31:42;3.25;;;1.67;;
25627;SDS011;40915;50.826;4.356;2022-07-06T12:34:13;6.07;;;2.45;;
25627;SDS011;40915;50.826;4.356;2022-07-06T12:39:13;8.77;;;2.72;;
25627;SDS011;40915;50.826;4.356;2022-07-06T12:44:21;18.20;;;2.78;;
25627;SDS011;40915;50.826;4.356;2022-07-06T12:46:48;2.70;;;1.70;;
25627;SDS011;40915;50.826;4.356;2022-07-06T12:49:22;4.85;;;2.08;;
25627;SDS011;40915;50.826;4.356;2022-07-06T12:51:52;5.10;;;1.95;;
25627;SDS011;40915;50.826;4.356;2022-07-06T12:54:27;3.58;;;1.85;;
25627;SDS011;40915;50.826;4.356;2022-07-06T12:59:27;5.30;;;1.85;;
25627;SDS011;40915;50.826;4.356;2022-07-06T13:01:54;6.22;;;2.58;;
25627;SDS011;40915;50.826;4.356;2022-07-06T13:04:23;8.27;;;6.63;;
25627;SDS011;40915;50.826;4.356;2022-07-06T13:06:50;6.47;;;3.47;;
25627;SDS011;40915;50.826;4.356;2022-07-06T13:09:16;7.38;;;2.40;;
25627;SDS011;40915;50.826;4.356;2022-07-06T13:11:43;9.95;;;2.30;;
25627;SDS011;40915;50.826;4.356;2022-07-06T13:14:10;7.30;;;2.25;;
25627;SDS011;40915;50.826;4.356;2022-07-06T13:16:36;6.47;;;2.45;;
25627;SDS011;40915;50.826;4.356;2022-07-06T13:19:03;4.20;;;1.90;;
25627;SDS011;40915;50.826;4.356;2022-07-06T13:21:29;5.70;;;1.92;;
25627;SDS011;40915;50.826;4.356;2022-07-06T13:23:54;5.95;;;1.83;;
25627;SDS011;40915;50.826;4.356;2022-07-06T13:26:21;7.05;;;2.15;;
25627;SDS011;40915;50.826;4.356;2022-07-06T13:28:47;7.88;;;2.30;;
25627;SDS011;40915;50.826;4.356;2022-07-06T13:31:13;5.28;;;2.03;;
25627;SDS011;40915;50.826;4.356;2022-07-06T13:33:38;3.80;;;1.75;;
25627;SDS011;40915;50.826;4.356;2022-07-06T13:36:04;4.45;;;1.90;;
25627;SDS011;40915;50.826;4.356;2022-07-06T13:38:30;4.80;;;2.13;;
25627;SDS011;40915;50.826;4.356;2022-07-06T13:40:56;4.97;;;1.75;;
25627;SDS011;40915;50.826;4.356;2022-07-06T13:43:21;4.60;;;2.13;;
25627;SDS011;40915;50.826;4.356;2022-07-06T13:45:47;6.47;;;2.28;;
25627;SDS011;40915;50.826;4.356;2022-07-06T13:48:13;5.68;;;2.10;;
25627;SDS011;40915;50.826;4.356;2022-07-06T13:50:39;6.47;;;2.75;;
25627;SDS011;40915;50.826;4.356;2022-07-06T13:53:06;8.18;;;2.35;;
25627;SDS011;40915;50.826;4.356;2022-07-06T13:55:32;5.28;;;2.08;;
25627;SDS011;40915;50.826;4.356;2022-07-06T13:57:58;5.80;;;2.05;;
25627;SDS011;40915;50.826;4.356;2022-07-06T14:00:24;4.72;;;1.90;;
25627;SDS011;40915;50.826;4.356;2022-07-06T14:02:50;5.40;;;1.80;;
25627;SDS011;40915;50.826;4.356;2022-07-06T14:05:16;5.32;;;1.85;;
25627;SDS011;40915;50.826;4.356;2022-07-06T14:07:41;7.70;;;1.73;;
25627;SDS011;40915;50.826;4.356;2022-07-06T14:10:07;6.50;;;1.90;;
25627;SDS011;40915;50.826;4.356;2022-07-06T14:12:33;7.53;;;2.35;;
25627;SDS011;40915;50.826;4.356;2022-07-06T14:15:00;4.72;;;1.55;;
25627;SDS011;40915;50.826;4.356;2022-07-06T14:17:26;5.82;;;1.60;;
25627;SDS011;40915;50.826;4.356;2022-07-06T14:19:51;2.72;;;1.70;;
25627;SDS011;40915;50.826;4.356;2022-07-06T14:22:17;5.28;;;1.60;;
25627;SDS011;40915;50.826;4.356;2022-07-06T14:24:43;5.15;;;1.95;;
25627;SDS011;40915;50.826;4.356;2022-07-06T14:27:09;4.18;;;1.65;;
25627;SDS011;40915;50.826;4.356;2022-07-06T14:29:34;6.32;;;1.80;;
25627;SDS011;40915;50.826;4.356;2022-07-06T14:32:00;4.35;;;1.77;;
25627;SDS011;40915;50.826;4.356;2022-07-06T14:34:26;9.13;;;1.98;;
25627;SDS011;40915;50.826;4.356;2022-07-06T14:36:52;6.10;;;2.05;;
25627;SDS011;40915;50.826;4.356;2022-07-06T14:39:17;3.83;;;1.60;;
25627;SDS011;40915;50.826;4.356;2022-07-06T14:41:43;2.58;;;1.40;;
25627;SDS011;40915;50.826;4.356;2022-07-06T14:44:09;6.78;;;1.65;;
25627;SDS011;40915;50.826;4.356;2022-07-06T14:46:34;3.55;;;1.70;;
25627;SDS011;40915;50.826;4.356;2022-07-06T14:49:00;5.82;;;1.45;;
25627;SDS011;40915;50.826;4.356;2022-07-06T14:51:26;3.58;;;1.70;;
25627;SDS011;40915;50.826;4.356;2022-07-06T14:53:52;3.53;;;1.60;;
25627;SDS011;40915;50.826;4.356;2022-07-06T14:56:18;5.95;;;2.00;;
25627;SDS011;40915;50.826;4.356;2022-07-06T14:58:44;3.92;;;1.60;;